createdAt,value
2022-11-10T00:01:09.924Z,6.50
2022-11-10T00:03:38.981Z,6.50
2022-11-10T00:06:08.370Z,6.50
2022-11-10T00:08:35.448Z,6.60
2022-11-10T00:11:07.160Z,6.60
2022-11-10T00:13:58.337Z,6.60
2022-11-10T00:16:43.927Z,6.70
2022-11-10T00:19:10.936Z,6.70
2022-11-10T00:21:38.096Z,6.70
2022-11-10T00:24:05.647Z,6.70
2022-11-10T00:26:32.769Z,6.70
2022-11-10T00:28:59.742Z,6.70
2022-11-10T00:31:28.847Z,6.80
2022-11-10T00:33:56.278Z,6.80
2022-11-10T00:36:24.015Z,6.80
2022-11-10T00:38:51.787Z,6.80
2022-11-10T00:41:18.763Z,6.80
2022-11-10T00:43:45.847Z,6.80
2022-11-10T00:46:13.446Z,6.80
2022-11-10T00:48:40.663Z,6.80
2022-11-10T00:51:08.955Z,6.80
2022-11-10T00:53:35.895Z,6.80
2022-11-10T00:56:02.877Z,6.80
2022-11-10T00:58:29.851Z,6.80
2022-11-10T01:01:04.414Z,6.80
2022-11-10T01:03:31.862Z,6.90
2022-11-10T01:05:58.876Z,6.90
2022-11-10T01:08:25.876Z,6.90
2022-11-10T01:10:52.858Z,7.00
2022-11-10T01:13:20.448Z,7.00
2022-11-10T01:15:47.681Z,7.00
2022-11-10T01:18:14.682Z,7.00
2022-11-10T01:20:41.738Z,7.00
2022-11-10T01:23:10.078Z,7.00
2022-11-10T01:25:37.512Z,7.10
2022-11-10T01:28:04.521Z,7.10
2022-11-10T01:30:32.039Z,7.10
2022-11-10T01:32:59.054Z,7.10
2022-11-10T01:35:25.961Z,7.10
2022-11-10T01:37:53.494Z,7.10
2022-11-10T01:40:21.266Z,7.10
2022-11-10T01:42:54.115Z,7.10
2022-11-10T01:45:35.040Z,7.10
2022-11-10T01:48:05.781Z,7.20
2022-11-10T01:50:37.698Z,7.20
2022-11-10T01:53:08.354Z,7.20
2022-11-10T01:55:39.207Z,7.20
2022-11-10T01:58:06.703Z,7.30
2022-11-10T02:00:33.773Z,7.30
2022-11-10T02:03:29.338Z,7.30
2022-11-10T02:05:56.589Z,7.40
2022-11-10T02:08:26.130Z,7.40
2022-11-10T02:10:53.134Z,7.40
2022-11-10T02:13:20.331Z,7.40
2022-11-10T02:15:47.550Z,7.50
2022-11-10T02:18:14.545Z,7.50
2022-11-10T02:20:45.333Z,7.50
2022-11-10T02:23:35.560Z,7.50
2022-11-10T02:26:05.597Z,7.50
2022-11-10T02:28:37.623Z,7.50
2022-11-10T02:31:06.288Z,7.50
2022-11-10T02:33:33.277Z,7.50
2022-11-10T02:36:00.253Z,7.50
2022-11-10T02:38:27.315Z,7.50
2022-11-10T02:40:54.309Z,7.50
2022-11-10T02:43:21.899Z,7.60
2022-11-10T02:45:49.233Z,7.60
2022-11-10T02:48:16.713Z,7.60
2022-11-10T02:50:44.156Z,7.60
2022-11-10T02:53:11.200Z,7.60
2022-11-10T02:55:38.865Z,7.60
2022-11-10T02:58:06.118Z,7.60
2022-11-10T03:00:33.442Z,7.50
2022-11-10T03:03:02.225Z,7.50
2022-11-10T03:05:30.579Z,7.60
2022-11-10T03:08:01.435Z,7.60
2022-11-10T03:10:29.869Z,7.60
2022-11-10T03:12:59.233Z,7.60
2022-11-10T03:15:26.383Z,7.60
2022-11-10T03:17:53.537Z,7.50
2022-11-10T03:20:21.005Z,7.50
2022-11-10T03:22:48.036Z,7.50
2022-11-10T03:25:15.636Z,7.60
2022-11-10T03:27:42.603Z,7.60
2022-11-10T03:30:10.429Z,7.60
2022-11-10T03:32:37.599Z,7.60
2022-11-10T03:35:04.809Z,7.60
2022-11-10T03:37:31.784Z,7.60
2022-11-10T03:39:58.802Z,7.70
2022-11-10T03:42:25.918Z,7.70
2022-11-10T03:44:52.925Z,7.70
2022-11-10T03:47:20.886Z,7.70
2022-11-10T03:49:47.838Z,7.70
2022-11-10T03:52:15.332Z,7.70
2022-11-10T03:54:42.533Z,7.70
2022-11-10T03:57:09.546Z,7.70
2022-11-10T03:59:36.612Z,7.70
2022-11-10T04:02:03.793Z,7.70
2022-11-10T04:04:49.804Z,7.70
2022-11-10T04:07:35.240Z,7.70
2022-11-10T04:10:03.304Z,7.70
2022-11-10T04:12:48.756Z,7.70
2022-11-10T04:15:34.148Z,7.80
2022-11-10T04:18:19.760Z,7.80
2022-11-10T04:20:47.682Z,7.80
2022-11-10T04:23:27.699Z,7.80
2022-11-10T04:26:15.786Z,7.80
2022-11-10T04:28:43.200Z,7.70
2022-11-10T04:31:10.764Z,7.80
2022-11-10T04:33:38.919Z,7.80
2022-11-10T04:36:07.691Z,7.80
2022-11-10T04:38:34.815Z,7.80
2022-11-10T04:41:02.485Z,7.80
2022-11-10T04:43:29.756Z,7.90
2022-11-10T04:45:57.816Z,7.90
2022-11-10T04:48:26.305Z,7.90
2022-11-10T04:50:54.054Z,7.90
2022-11-10T04:53:21.497Z,8.00
2022-11-10T04:55:48.962Z,8.00
2022-11-10T04:58:15.970Z,8.00
2022-11-10T05:00:43.720Z,8.00
2022-11-10T05:03:12.189Z,8.00
2022-11-10T05:05:40.170Z,8.10
2022-11-10T05:08:08.349Z,8.10
2022-11-10T05:10:37.129Z,8.10
2022-11-10T05:13:06.340Z,8.10
2022-11-10T05:15:34.162Z,8.10
2022-11-10T05:18:01.441Z,8.10
2022-11-10T05:20:28.668Z,8.10
2022-11-10T05:23:14.294Z,8.10
2022-11-10T05:25:43.248Z,8.20
2022-11-10T05:28:12.205Z,8.10
2022-11-10T05:30:40.371Z,8.20
2022-11-10T05:33:07.898Z,8.20
2022-11-10T05:35:35.728Z,8.20
2022-11-10T05:38:03.137Z,8.20
2022-11-10T05:40:30.360Z,8.20
2022-11-10T05:42:58.038Z,8.30
2022-11-10T05:45:27.869Z,8.30
2022-11-10T05:47:55.650Z,8.30
2022-11-10T05:50:24.360Z,8.30
2022-11-10T05:52:55.654Z,8.30
2022-11-10T05:55:26.374Z,8.40
2022-11-10T05:57:55.203Z,8.30
2022-11-10T06:00:25.035Z,8.30
2022-11-10T06:03:00.929Z,8.40
2022-11-10T06:05:31.348Z,8.40
2022-11-10T06:07:59.740Z,8.40
2022-11-10T06:10:27.028Z,8.40
2022-11-10T06:12:54.266Z,8.40
2022-11-10T06:15:21.945Z,8.40
2022-11-10T06:17:49.629Z,8.40
2022-11-10T06:20:17.764Z,8.40
2022-11-10T06:22:58.957Z,8.40
2022-11-10T06:25:26.366Z,8.40
2022-11-10T06:27:53.859Z,8.40
2022-11-10T06:30:21.282Z,8.40
2022-11-10T06:32:48.390Z,8.50
2022-11-10T06:35:15.836Z,8.50
2022-11-10T06:37:42.948Z,8.50
2022-11-10T06:40:11.607Z,8.50
2022-11-10T06:42:38.720Z,8.50
2022-11-10T06:45:06.149Z,8.60
2022-11-10T06:47:33.167Z,8.60
2022-11-10T06:50:00.242Z,8.60
2022-11-10T06:52:27.223Z,8.60
2022-11-10T06:54:54.158Z,8.60
2022-11-10T06:57:21.122Z,8.70
2022-11-10T06:59:48.104Z,8.70
2022-11-10T07:02:15.742Z,8.70
2022-11-10T07:04:42.970Z,8.70
2022-11-10T07:07:11.355Z,8.70
2022-11-10T07:09:38.426Z,8.80
2022-11-10T07:12:05.788Z,8.80
2022-11-10T07:14:32.752Z,8.80
2022-11-10T07:16:59.898Z,8.90
2022-11-10T07:19:26.903Z,8.90
2022-11-10T07:21:54.071Z,9.00
2022-11-10T07:24:21.038Z,9.00
2022-11-10T07:26:48.030Z,9.10
2022-11-10T07:29:15.257Z,9.10
2022-11-10T07:31:42.253Z,9.20
2022-11-10T07:34:11.941Z,9.30
2022-11-10T07:36:38.925Z,9.30
2022-11-10T07:39:06.366Z,9.40
2022-11-10T07:41:33.702Z,9.40
2022-11-10T07:44:00.702Z,9.40
2022-11-10T07:46:27.665Z,9.50
2022-11-10T07:48:54.675Z,9.50
2022-11-10T07:51:21.739Z,9.50
2022-11-10T07:53:48.772Z,9.60
2022-11-10T07:56:15.901Z,9.60
2022-11-10T07:58:42.941Z,9.60
2022-11-10T08:01:10.752Z,9.60
2022-11-10T08:03:37.722Z,9.60
2022-11-10T08:06:04.878Z,9.60
2022-11-10T08:08:31.851Z,9.60
2022-11-10T08:10:59.045Z,9.70
2022-11-10T08:13:26.089Z,9.70
2022-11-10T08:15:53.060Z,9.80
2022-11-10T08:18:22.967Z,9.80
2022-11-10T08:20:50.106Z,9.90
2022-11-10T08:23:18.054Z,9.90
2022-11-10T08:25:46.899Z,9.90
2022-11-10T08:28:19.762Z,9.90
2022-11-10T08:30:48.117Z,10.00
2022-11-10T08:33:18.310Z,10.00
2022-11-10T08:35:50.444Z,10.10
2022-11-10T08:38:20.537Z,10.10
2022-11-10T08:40:48.265Z,10.20
2022-11-10T08:43:17.227Z,10.20
2022-11-10T08:45:45.309Z,10.20
2022-11-10T08:48:20.588Z,10.30
2022-11-10T08:50:49.914Z,10.30
2022-11-10T08:53:22.598Z,10.40
2022-11-10T08:55:51.082Z,10.40
2022-11-10T08:58:21.616Z,10.50
2022-11-10T09:00:49.345Z,10.50
2022-11-10T09:03:21.118Z,10.60
2022-11-10T09:05:55.241Z,10.60
2022-11-10T09:08:24.918Z,10.60
2022-11-10T09:10:51.938Z,10.70
2022-11-10T09:13:27.901Z,10.70
2022-11-10T09:16:01.136Z,10.80
2022-11-10T09:18:28.223Z,10.80
2022-11-10T09:20:55.355Z,10.80
2022-11-10T09:23:24.939Z,10.90
2022-11-10T09:25:54.683Z,10.90
2022-11-10T09:28:22.724Z,11.00
2022-11-10T09:30:51.833Z,11.00
2022-11-10T09:33:19.607Z,11.00
2022-11-10T09:35:46.888Z,11.00
2022-11-10T09:38:14.274Z,11.10
2022-11-10T09:41:04.630Z,11.00
2022-11-10T09:43:43.413Z,11.00
2022-11-10T09:46:25.009Z,11.00
2022-11-10T09:48:58.538Z,11.00
2022-11-10T09:51:29.655Z,11.00
2022-11-10T09:53:59.392Z,11.00
2022-11-10T09:56:36.048Z,11.10
2022-11-10T09:59:30.690Z,11.10
2022-11-10T10:02:32.300Z,11.00
2022-11-10T10:05:24.142Z,11.00
2022-11-10T10:08:06.609Z,11.00
2022-11-10T10:10:39.503Z,11.10
2022-11-10T10:13:23.538Z,11.00
2022-11-10T10:15:59.652Z,11.10
2022-11-10T10:18:38.748Z,11.10
2022-11-10T10:21:20.819Z,11.10
2022-11-10T10:24:09.519Z,11.10
2022-11-10T10:26:50.911Z,11.10
2022-11-10T10:29:24.439Z,11.10
2022-11-10T10:31:53.121Z,11.10
2022-11-10T10:34:27.505Z,11.10
2022-11-10T10:36:54.494Z,11.20
2022-11-10T10:39:24.460Z,11.20
2022-11-10T10:41:51.418Z,11.30
2022-11-10T10:44:20.142Z,11.40
2022-11-10T10:46:56.155Z,11.40
2022-11-10T10:49:29.641Z,11.50
2022-11-10T10:52:12.799Z,11.50
2022-11-10T10:54:40.576Z,11.50
2022-11-10T10:57:31.152Z,11.60
2022-11-10T11:00:22.712Z,11.60
2022-11-10T11:03:11.675Z,11.70
2022-11-10T11:05:38.700Z,11.60
2022-11-10T11:08:06.042Z,11.60
2022-11-10T11:10:35.732Z,11.60
2022-11-10T11:13:23.216Z,11.70
2022-11-10T11:16:04.305Z,11.70
2022-11-10T11:18:33.102Z,11.70
2022-11-10T11:21:08.226Z,11.80
2022-11-10T11:23:55.428Z,11.80
2022-11-10T11:26:49.384Z,11.90
2022-11-10T11:29:25.209Z,11.90
2022-11-10T11:32:07.315Z,11.90
2022-11-10T11:34:37.502Z,11.90
2022-11-10T11:37:20.024Z,11.90
2022-11-10T11:40:24.273Z,12.00
2022-11-10T11:43:23.614Z,12.00
2022-11-10T11:46:15.749Z,12.10
2022-11-10T11:48:45.762Z,12.10
2022-11-10T11:51:30.630Z,12.10
2022-11-10T11:54:23.463Z,12.20
2022-11-10T11:56:53.658Z,12.20
2022-11-10T11:59:52.854Z,12.20
2022-11-10T12:02:29.068Z,12.20
2022-11-10T12:05:18.046Z,12.20
2022-11-10T12:08:06.891Z,12.30
2022-11-10T12:10:46.281Z,12.30
2022-11-10T12:13:44.194Z,12.30
2022-11-10T12:16:20.207Z,12.30
2022-11-10T12:19:03.803Z,12.30
2022-11-10T12:21:36.507Z,12.40
2022-11-10T12:24:10.675Z,12.40
2022-11-10T12:26:58.777Z,12.40
2022-11-10T12:29:41.589Z,12.30
2022-11-10T12:32:35.147Z,12.30
2022-11-10T12:35:22.640Z,12.30
2022-11-10T12:38:02.255Z,12.20
2022-11-10T12:40:41.871Z,12.20
2022-11-10T12:43:39.277Z,12.20
2022-11-10T12:46:11.458Z,12.30
2022-11-10T12:49:07.568Z,12.30
2022-11-10T12:51:53.746Z,12.40
2022-11-10T12:54:23.700Z,12.50
2022-11-10T12:57:07.201Z,12.50
2022-11-10T12:59:40.814Z,12.60
2022-11-10T13:02:32.685Z,12.50
2022-11-10T13:05:14.881Z,12.60
2022-11-10T13:07:49.578Z,12.60
2022-11-10T13:10:19.642Z,12.60
2022-11-10T13:13:16.596Z,12.60
2022-11-10T13:15:43.601Z,12.50
2022-11-10T13:18:11.810Z,12.40
2022-11-10T13:20:42.116Z,12.30
2022-11-10T13:23:31.253Z,12.30
2022-11-10T13:26:39.206Z,12.40
2022-11-10T13:29:37.829Z,12.50
2022-11-10T13:32:07.837Z,12.50
2022-11-10T13:34:37.101Z,12.50
2022-11-10T13:37:29.946Z,12.60
2022-11-10T13:40:34.879Z,12.60
2022-11-10T13:43:01.850Z,12.60
2022-11-10T13:45:41.291Z,12.60
2022-11-10T13:48:29.252Z,12.70
2022-11-10T13:51:25.501Z,12.70
2022-11-10T13:54:13.004Z,12.70
2022-11-10T13:56:48.747Z,12.70
2022-11-10T13:59:19.706Z,12.80
2022-11-10T14:01:47.852Z,12.80
2022-11-10T14:04:36.002Z,12.80
2022-11-10T14:07:06.008Z,12.90
2022-11-10T14:09:40.103Z,12.90
2022-11-10T14:12:30.787Z,12.90
2022-11-10T14:15:21.791Z,12.80
2022-11-10T14:17:55.429Z,12.70
2022-11-10T14:20:31.765Z,12.60
2022-11-10T14:23:00.813Z,12.50
2022-11-10T14:25:37.006Z,12.50
2022-11-10T14:28:24.304Z,12.40
2022-11-10T14:30:56.732Z,12.40
2022-11-10T14:33:28.072Z,12.30
2022-11-10T14:36:01.764Z,12.30
2022-11-10T14:38:34.089Z,12.30
2022-11-10T14:41:03.491Z,12.30
2022-11-10T14:43:31.898Z,12.20
2022-11-10T14:45:59.715Z,12.20
2022-11-10T14:48:32.970Z,12.20
2022-11-10T14:51:19.491Z,12.10
2022-11-10T14:53:49.769Z,12.10
2022-11-10T14:56:24.367Z,12.00
2022-11-10T14:58:52.157Z,12.00
2022-11-10T15:01:34.031Z,11.90
2022-11-10T15:04:06.791Z,11.90
2022-11-10T15:06:35.181Z,11.80
2022-11-10T15:09:29.080Z,11.80
2022-11-10T15:12:26.093Z,11.80
2022-11-10T15:15:00.989Z,11.80
2022-11-10T15:17:48.959Z,11.70
2022-11-10T15:20:36.542Z,11.60
2022-11-10T15:23:21.763Z,11.60
2022-11-10T15:25:53.135Z,11.60
2022-11-10T15:28:31.078Z,11.50
2022-11-10T15:31:00.928Z,11.50
2022-11-10T15:33:32.288Z,11.50
2022-11-10T15:36:17.654Z,11.60
2022-11-10T15:38:44.830Z,11.60
2022-11-10T15:41:16.196Z,11.60
2022-11-10T15:43:43.229Z,11.60
2022-11-10T15:46:18.182Z,11.60
2022-11-10T15:48:48.946Z,11.60
2022-11-10T15:51:25.644Z,11.60
2022-11-10T15:53:54.477Z,11.60
2022-11-10T15:56:24.440Z,11.60
2022-11-10T15:58:57.843Z,11.50
2022-11-10T16:01:28.057Z,11.50
2022-11-10T16:03:55.695Z,11.40
2022-11-10T16:06:22.756Z,11.40
2022-11-10T16:08:49.741Z,11.30
2022-11-10T16:11:21.893Z,11.30
2022-11-10T16:13:50.560Z,11.30
2022-11-10T16:16:19.469Z,11.20
2022-11-10T16:18:47.187Z,11.20
2022-11-10T16:21:16.822Z,11.20
2022-11-10T16:23:44.000Z,11.20
2022-11-10T16:26:15.524Z,11.20
2022-11-10T16:28:44.401Z,11.20
2022-11-10T16:31:12.146Z,11.30
2022-11-10T16:33:39.809Z,11.30
2022-11-10T16:36:15.162Z,11.30
2022-11-10T16:38:42.254Z,11.30
2022-11-10T16:41:14.785Z,11.30
2022-11-10T16:43:41.921Z,11.30
2022-11-10T16:46:24.655Z,11.30
2022-11-10T16:48:56.776Z,11.30
2022-11-10T16:51:33.986Z,11.40
2022-11-10T16:54:01.189Z,11.40
2022-11-10T16:56:28.196Z,11.40
2022-11-10T16:58:55.297Z,11.40
2022-11-10T17:01:34.847Z,11.40
2022-11-10T17:04:10.736Z,11.40
2022-11-10T17:06:38.178Z,11.40
2022-11-10T17:09:21.952Z,11.40
2022-11-10T17:11:49.833Z,11.40
2022-11-10T17:14:18.165Z,11.40
2022-11-10T17:16:46.839Z,11.40
2022-11-10T17:19:21.904Z,11.40
2022-11-10T17:21:50.821Z,11.40
2022-11-10T17:24:19.486Z,11.40
2022-11-10T17:26:47.538Z,11.30
2022-11-10T17:29:22.619Z,11.40
2022-11-10T17:31:53.078Z,11.30
2022-11-10T17:34:20.274Z,11.30
2022-11-10T17:36:50.179Z,11.30
2022-11-10T17:39:18.074Z,11.30
2022-11-10T17:41:45.504Z,11.30
2022-11-10T17:44:19.586Z,11.30
2022-11-10T17:46:46.865Z,11.30
2022-11-10T17:49:14.122Z,11.30
2022-11-10T17:51:45.325Z,11.30
2022-11-10T17:54:16.055Z,11.30
2022-11-10T17:56:43.516Z,11.20
2022-11-10T17:59:10.719Z,11.20
2022-11-10T18:01:39.935Z,11.20
2022-11-10T18:04:07.207Z,11.20
2022-11-10T18:06:34.749Z,11.30
2022-11-10T18:09:02.390Z,11.20
2022-11-10T18:11:29.822Z,11.20
2022-11-10T18:13:57.012Z,11.20
2022-11-10T18:16:25.518Z,11.20
2022-11-10T18:18:52.730Z,11.10
2022-11-10T18:21:20.176Z,11.10
2022-11-10T18:23:47.420Z,11.10
2022-11-10T18:26:14.945Z,11.00
2022-11-10T18:28:44.201Z,11.00
2022-11-10T18:31:13.764Z,10.90
2022-11-10T18:33:42.828Z,10.80
2022-11-10T18:36:10.787Z,10.80
2022-11-10T18:38:42.564Z,10.70
2022-11-10T18:41:29.727Z,10.60
2022-11-10T18:43:57.886Z,10.50
2022-11-10T18:46:25.391Z,10.40
2022-11-10T18:48:53.024Z,10.40
2022-11-10T18:51:20.664Z,10.30
2022-11-10T18:53:48.495Z,10.20
2022-11-10T18:56:16.253Z,10.10
2022-11-10T18:58:44.693Z,10.10
2022-11-10T19:01:12.608Z,10.00
2022-11-10T19:03:40.401Z,9.90
2022-11-10T19:06:08.544Z,9.90
2022-11-10T19:08:38.390Z,9.80
2022-11-10T19:11:14.997Z,9.70
2022-11-10T19:13:43.470Z,9.70
2022-11-10T19:16:13.846Z,9.60
2022-11-10T19:18:42.110Z,9.60
2022-11-10T19:21:13.307Z,9.50
2022-11-10T19:23:41.094Z,9.50
2022-11-10T19:26:19.429Z,9.50
2022-11-10T19:28:49.985Z,9.50
2022-11-10T19:31:20.244Z,9.40
2022-11-10T19:33:48.566Z,9.40
2022-11-10T19:36:25.469Z,9.40
2022-11-10T19:38:57.226Z,9.30
2022-11-10T19:41:28.170Z,9.30
2022-11-10T19:43:58.809Z,9.30
2022-11-10T19:46:28.710Z,9.20
2022-11-10T19:48:58.251Z,9.20
2022-11-10T19:51:26.410Z,9.10
2022-11-10T19:54:02.350Z,9.10
2022-11-10T19:56:32.257Z,9.00
2022-11-10T19:59:01.188Z,9.00
2022-11-10T20:01:29.805Z,8.90
2022-11-10T20:03:59.982Z,8.90
2022-11-10T20:06:27.856Z,8.80
2022-11-10T20:08:55.927Z,8.80
2022-11-10T20:11:26.602Z,8.80
2022-11-10T20:13:56.998Z,8.80
2022-11-10T20:16:24.228Z,8.70
2022-11-10T20:18:51.433Z,8.70
2022-11-10T20:21:23.333Z,8.60
2022-11-10T20:23:56.064Z,8.60
2022-11-10T20:26:24.560Z,8.50
2022-11-10T20:28:52.509Z,8.50
2022-11-10T20:31:24.500Z,8.50
2022-11-10T20:33:55.733Z,8.40
2022-11-10T20:36:27.415Z,8.40
2022-11-10T20:39:00.151Z,8.30
2022-11-10T20:41:30.167Z,8.30
2022-11-10T20:43:58.216Z,8.30
2022-11-10T20:46:53.877Z,8.20
2022-11-10T20:49:13.010Z,8.20
2022-11-10T20:51:41.288Z,8.10
2022-11-10T20:54:12.204Z,8.10
2022-11-10T20:56:39.704Z,8.10
2022-11-10T20:59:06.904Z,8.00
2022-11-10T21:01:34.588Z,8.00
2022-11-10T21:04:06.418Z,8.00
2022-11-10T21:06:34.201Z,8.00
2022-11-10T21:09:01.839Z,7.90
2022-11-10T21:11:52.238Z,7.90
2022-11-10T21:14:20.705Z,7.90
2022-11-10T21:16:48.094Z,7.80
2022-11-10T21:19:15.610Z,7.80
2022-11-10T21:21:43.285Z,7.70
2022-11-10T21:24:11.023Z,7.70
2022-11-10T21:26:38.239Z,7.70
2022-11-10T21:29:08.180Z,7.70
2022-11-10T21:31:38.892Z,7.60
2022-11-10T21:34:07.623Z,7.60
2022-11-10T21:36:35.038Z,7.60
2022-11-10T21:39:02.010Z,7.60
2022-11-10T21:41:29.015Z,7.60
2022-11-10T21:43:55.930Z,7.60
2022-11-10T21:46:22.957Z,7.50
2022-11-10T21:48:50.847Z,7.50
2022-11-10T21:51:19.935Z,7.50
2022-11-10T21:53:47.417Z,7.50
2022-11-10T21:56:14.571Z,7.50
2022-11-10T21:58:41.583Z,7.50
2022-11-10T22:01:13.295Z,7.40
2022-11-10T22:03:40.944Z,7.40
2022-11-10T22:06:10.919Z,7.40
2022-11-10T22:08:39.478Z,7.30
2022-11-10T22:11:31.872Z,7.30
2022-11-10T22:14:17.597Z,7.20
2022-11-10T22:17:07.779Z,7.20
2022-11-10T22:19:36.295Z,7.10
2022-11-10T22:22:04.430Z,7.00
2022-11-10T22:24:31.961Z,7.00
2022-11-10T22:27:01.497Z,7.00
2022-11-10T22:29:32.175Z,7.00
2022-11-10T22:32:00.380Z,6.90
2022-11-10T22:34:27.539Z,6.90
2022-11-10T22:37:00.169Z,6.90
2022-11-10T22:39:45.974Z,6.80
2022-11-10T22:42:31.534Z,6.80
2022-11-10T22:44:58.897Z,6.80
2022-11-10T22:47:26.052Z,6.80
2022-11-10T22:49:53.066Z,6.80
2022-11-10T22:52:20.130Z,6.70
2022-11-10T22:54:47.104Z,6.70
2022-11-10T22:57:14.146Z,6.70
2022-11-10T22:59:41.144Z,6.60
2022-11-10T23:02:08.226Z,6.60
2022-11-10T23:04:35.452Z,6.60
2022-11-10T23:07:02.500Z,6.60
2022-11-10T23:09:29.712Z,6.60
2022-11-10T23:11:56.752Z,6.60
2022-11-10T23:14:24.653Z,6.50
2022-11-10T23:16:51.635Z,6.50
2022-11-10T23:19:18.710Z,6.50
2022-11-10T23:21:45.717Z,6.50
2022-11-10T23:24:13.875Z,6.40
2022-11-10T23:26:40.890Z,6.40
2022-11-10T23:29:07.921Z,6.40
2022-11-10T23:31:35.167Z,6.40
2022-11-10T23:34:02.158Z,6.40
2022-11-10T23:36:29.173Z,6.30
2022-11-10T23:38:56.188Z,6.30
2022-11-10T23:41:26.118Z,6.30
2022-11-10T23:43:54.043Z,6.20
2022-11-10T23:46:21.021Z,6.20
2022-11-10T23:48:48.136Z,6.20
2022-11-10T23:51:15.681Z,6.20
2022-11-10T23:53:42.806Z,6.20
2022-11-10T23:56:13.475Z,6.20
2022-11-10T23:58:41.265Z,6.20
